createdAt,value
2023-11-20T00:01:43.160Z,15.38
2023-11-20T00:04:10.437Z,11.73
2023-11-20T00:06:37.241Z,7.70
2023-11-20T00:09:04.545Z,12.25
2023-11-20T00:11:31.808Z,12.32
2023-11-20T00:13:58.992Z,14.30
2023-11-20T00:16:25.767Z,15.57
2023-11-20T00:18:53.136Z,17.20
2023-11-20T00:21:20.340Z,13.55
2023-11-20T00:23:47.571Z,10.50
2023-11-20T00:26:15.509Z,14.70
2023-11-20T00:28:45.764Z,12.68
2023-11-20T00:31:16.437Z,11.07
2023-11-20T00:33:44.387Z,13.95
2023-11-20T00:36:11.251Z,11.35
2023-11-20T00:38:38.498Z,10.02
2023-11-20T00:41:05.783Z,15.02
2023-11-20T00:43:33.208Z,15.60
2023-11-20T00:46:00.441Z,13.23
2023-11-20T00:48:27.274Z,14.05
2023-11-20T00:50:55.395Z,10.75
2023-11-20T00:53:22.367Z,9.77
2023-11-20T00:55:49.608Z,7.10
2023-11-20T00:58:16.372Z,10.98
2023-11-20T01:00:43.567Z,19.70
2023-11-20T01:03:10.830Z,14.75
2023-11-20T01:05:38.312Z,11.45
2023-11-20T01:08:05.557Z,12.48
2023-11-20T01:10:32.382Z,19.60
2023-11-20T01:12:59.247Z,12.85
2023-11-20T01:15:30.300Z,20.60
2023-11-20T01:17:58.004Z,12.35
2023-11-20T01:20:25.455Z,13.70
2023-11-20T01:22:52.249Z,14.13
2023-11-20T01:25:19.472Z,17.20
2023-11-20T01:27:46.677Z,9.45
2023-11-20T01:30:14.346Z,18.58
2023-11-20T01:32:41.140Z,13.68
2023-11-20T01:35:10.096Z,13.40
2023-11-20T01:37:36.991Z,18.38
2023-11-20T01:40:05.653Z,14.77
2023-11-20T01:42:32.633Z,14.25
2023-11-20T01:45:00.494Z,16.05
2023-11-20T01:47:28.090Z,12.70
2023-11-20T01:49:54.921Z,13.88
2023-11-20T01:52:25.022Z,11.43
2023-11-20T01:54:53.549Z,9.57
2023-11-20T01:57:20.718Z,16.38
2023-11-20T01:59:47.897Z,12.98
2023-11-20T02:02:15.096Z,12.00
2023-11-20T02:04:43.800Z,17.50
2023-11-20T02:07:11.722Z,18.33
2023-11-20T02:09:39.198Z,13.05
2023-11-20T02:12:07.081Z,15.88
2023-11-20T02:14:34.495Z,9.57
2023-11-20T02:17:01.672Z,18.33
2023-11-20T02:19:29.148Z,14.27
2023-11-20T02:21:56.283Z,16.20
2023-11-20T02:24:23.425Z,15.27
2023-11-20T02:27:27.721Z,11.93
2023-11-20T02:29:55.702Z,14.70
2023-11-20T02:32:23.073Z,17.50
2023-11-20T02:34:53.368Z,16.35
2023-11-20T02:37:20.108Z,8.63
2023-11-20T02:39:50.876Z,17.15
2023-11-20T02:44:47.113Z,13.02
2023-11-20T02:47:14.466Z,18.00
2023-11-20T02:49:41.916Z,12.98
2023-11-20T02:52:09.165Z,11.27
2023-11-20T02:54:36.835Z,13.07
2023-11-20T02:57:04.501Z,15.20
2023-11-20T02:59:31.796Z,14.57
2023-11-20T03:01:59.184Z,7.93
2023-11-20T03:04:26.503Z,13.57
2023-11-20T03:06:53.737Z,11.75
2023-11-20T03:09:21.062Z,14.93
2023-11-20T03:11:48.220Z,16.52
2023-11-20T03:14:15.552Z,13.75
2023-11-20T03:16:43.067Z,15.82
2023-11-20T03:19:09.955Z,16.92
2023-11-20T03:21:41.573Z,12.82
2023-11-20T03:24:09.085Z,13.20
2023-11-20T03:26:36.537Z,18.80
2023-11-20T03:29:04.577Z,16.55
2023-11-20T03:31:38.349Z,14.15
2023-11-20T03:34:06.010Z,13.13
2023-11-20T03:36:35.972Z,13.25
2023-11-20T03:39:03.423Z,13.00
2023-11-20T03:41:30.205Z,10.48
2023-11-20T03:43:57.697Z,9.75
2023-11-20T03:46:24.544Z,16.05
2023-11-20T03:48:52.545Z,10.07
2023-11-20T03:51:19.976Z,13.05
2023-11-20T03:53:47.166Z,8.90
2023-11-20T03:56:16.229Z,10.55
2023-11-20T03:58:45.458Z,10.10
2023-11-20T04:01:13.268Z,14.10
2023-11-20T04:03:40.450Z,9.70
2023-11-20T04:06:07.913Z,10.38
2023-11-20T04:08:35.155Z,12.85
2023-11-20T04:11:03.274Z,10.20
2023-11-20T04:13:30.670Z,12.30
2023-11-20T04:15:58.644Z,9.43
2023-11-20T04:18:26.043Z,13.95
2023-11-20T04:20:53.146Z,16.52
2023-11-20T04:23:20.655Z,12.98
2023-11-20T04:25:47.420Z,10.43
2023-11-20T04:28:14.994Z,13.38
2023-11-20T04:30:42.371Z,9.50
2023-11-20T04:33:09.765Z,10.88
2023-11-20T04:35:36.877Z,10.85
2023-11-20T04:38:04.472Z,10.30
2023-11-20T04:40:31.608Z,10.65
2023-11-20T04:42:58.468Z,6.63
2023-11-20T04:45:25.702Z,14.55
2023-11-20T04:47:52.464Z,12.25
2023-11-20T04:50:19.640Z,9.85
2023-11-20T04:52:46.757Z,13.32
2023-11-20T04:55:13.584Z,11.07
2023-11-20T04:57:40.860Z,10.52
2023-11-20T05:00:09.434Z,14.25
2023-11-20T05:02:36.642Z,13.43
2023-11-20T05:05:03.917Z,12.15
2023-11-20T05:07:31.422Z,10.82
2023-11-20T05:09:58.472Z,9.57
2023-11-20T05:12:26.607Z,11.35
2023-11-20T05:14:54.399Z,10.32
2023-11-20T05:17:21.533Z,12.27
2023-11-20T05:19:49.290Z,5.68
2023-11-20T05:22:18.254Z,8.90
2023-11-20T05:24:45.524Z,4.95
2023-11-20T05:27:12.657Z,7.57
2023-11-20T05:29:39.870Z,12.45
2023-11-20T05:32:07.844Z,12.15
2023-11-20T05:34:35.423Z,11.82
2023-11-20T05:37:02.839Z,11.23
2023-11-20T05:39:29.833Z,6.68
2023-11-20T05:41:57.368Z,12.25
2023-11-20T05:44:24.761Z,12.85
2023-11-20T05:46:52.580Z,11.05
2023-11-20T05:49:19.540Z,13.32
2023-11-20T05:51:46.422Z,12.70
2023-11-20T05:54:13.618Z,16.80
2023-11-20T05:56:41.988Z,14.07
2023-11-20T05:59:12.144Z,13.82
2023-11-20T06:01:43.398Z,15.23
2023-11-20T06:04:11.424Z,15.55
2023-11-20T06:06:39.317Z,13.52
2023-11-20T06:09:07.313Z,12.07
2023-11-20T06:11:35.395Z,11.57
2023-11-20T06:14:03.115Z,13.90
2023-11-20T06:16:30.620Z,8.43
2023-11-20T06:18:57.897Z,14.63
2023-11-20T06:21:25.074Z,9.82
2023-11-20T06:23:52.565Z,12.98
2023-11-20T06:26:19.342Z,14.63
2023-11-20T06:28:46.749Z,11.02
2023-11-20T06:31:14.199Z,10.32
2023-11-20T06:33:41.100Z,18.15
2023-11-20T06:36:08.567Z,10.75
2023-11-20T06:38:36.661Z,13.27
2023-11-20T06:41:04.801Z,12.75
2023-11-20T06:43:32.436Z,9.55
2023-11-20T06:46:01.214Z,15.02
2023-11-20T06:48:29.334Z,19.45
2023-11-20T06:50:56.706Z,15.32
2023-11-20T06:53:23.874Z,16.67
2023-11-20T06:55:51.155Z,14.55
2023-11-20T06:58:18.491Z,11.65
2023-11-20T07:00:45.379Z,18.02
2023-11-20T07:03:12.587Z,17.55
2023-11-20T07:05:40.014Z,21.25
2023-11-20T07:08:09.709Z,12.38
2023-11-20T07:10:37.529Z,15.10
2023-11-20T07:13:04.757Z,17.50
2023-11-20T07:15:34.073Z,16.15
2023-11-20T07:18:01.640Z,11.82
2023-11-20T07:20:28.911Z,7.20
2023-11-20T07:23:01.393Z,10.27
2023-11-20T07:25:34.228Z,17.90
2023-11-20T07:28:05.334Z,16.40
2023-11-20T07:30:33.630Z,17.40
2023-11-20T07:33:01.210Z,13.95
2023-11-20T07:35:28.815Z,18.15
2023-11-20T07:37:56.684Z,17.33
2023-11-20T07:40:25.762Z,16.58
2023-11-20T07:42:53.161Z,19.15
2023-11-20T07:45:20.455Z,19.67
2023-11-20T07:47:47.540Z,17.35
2023-11-20T07:50:15.654Z,21.90
2023-11-20T07:52:46.685Z,26.77
2023-11-20T07:55:14.312Z,21.00
2023-11-20T07:57:42.344Z,20.98
2023-11-20T08:00:13.277Z,11.88
2023-11-20T08:02:40.878Z,14.77
2023-11-20T08:05:10.066Z,14.75
2023-11-20T08:07:37.880Z,17.65
2023-11-20T08:10:06.937Z,18.35
2023-11-20T08:12:34.902Z,13.45
2023-11-20T08:15:01.924Z,14.07
2023-11-20T08:17:28.734Z,28.30
2023-11-20T08:19:55.502Z,20.55
2023-11-20T08:22:22.723Z,16.83
2023-11-20T08:24:50.042Z,17.70
2023-11-20T08:27:16.845Z,16.38
2023-11-20T08:29:44.201Z,14.30
2023-11-20T08:32:12.397Z,15.02
2023-11-20T08:34:39.722Z,9.32
2023-11-20T08:37:07.225Z,17.63
2023-11-20T08:39:36.573Z,18.67
2023-11-20T08:42:04.310Z,17.50
2023-11-20T08:44:31.781Z,15.52
2023-11-20T08:47:00.913Z,15.50
2023-11-20T08:49:29.015Z,18.23
2023-11-20T08:52:01.991Z,14.20
2023-11-20T08:54:33.304Z,14.65
2023-11-20T08:57:00.660Z,17.48
2023-11-20T08:59:30.229Z,18.40
2023-11-20T09:01:58.644Z,15.65
2023-11-20T09:04:25.656Z,17.85
2023-11-20T09:06:52.992Z,17.05
2023-11-20T09:09:19.864Z,14.38
2023-11-20T09:11:47.010Z,20.45
2023-11-20T09:14:15.517Z,18.23
2023-11-20T09:16:42.800Z,20.83
2023-11-20T09:19:10.113Z,19.38
2023-11-20T09:21:36.871Z,19.70
2023-11-20T09:24:04.173Z,14.75
2023-11-20T09:26:31.013Z,15.70
2023-11-20T09:28:58.197Z,17.02
2023-11-20T09:31:25.511Z,14.95
2023-11-20T09:33:53.027Z,16.58
2023-11-20T09:36:20.262Z,14.05
2023-11-20T09:38:47.588Z,13.57
2023-11-20T09:41:15.330Z,15.52
2023-11-20T09:43:45.122Z,19.05
2023-11-20T09:46:13.405Z,18.73
2023-11-20T09:48:41.000Z,14.50
2023-11-20T09:51:14.061Z,19.33
2023-11-20T09:53:43.650Z,17.55
2023-11-20T09:56:14.115Z,13.82
2023-11-20T09:58:44.113Z,15.45
2023-11-20T10:01:14.919Z,17.10
2023-11-20T10:03:43.624Z,15.63
2023-11-20T10:06:14.011Z,12.05
2023-11-20T10:08:42.239Z,18.20
2023-11-20T10:11:12.278Z,10.10
2023-11-20T10:13:40.681Z,12.15
2023-11-20T10:16:16.588Z,15.90
2023-11-20T10:18:44.108Z,14.43
2023-11-20T10:21:13.868Z,13.60
2023-11-20T10:23:41.905Z,20.13
2023-11-20T10:26:09.660Z,16.83
2023-11-20T10:28:40.499Z,17.15
2023-11-20T10:33:36.202Z,14.07
2023-11-20T10:36:13.901Z,14.77
2023-11-20T10:38:40.877Z,14.00
2023-11-20T10:41:14.387Z,15.55
2023-11-20T10:43:42.530Z,16.88
2023-11-20T10:46:09.978Z,12.45
2023-11-20T10:48:41.249Z,18.20
2023-11-20T10:51:09.007Z,18.92
2023-11-20T10:53:39.808Z,16.45
2023-11-20T10:56:08.102Z,12.13
2023-11-20T10:58:35.744Z,14.52
2023-11-20T11:01:03.843Z,11.55
2023-11-20T11:03:34.472Z,14.55
2023-11-20T11:06:04.439Z,17.13
2023-11-20T11:08:34.033Z,14.15
2023-11-20T11:11:03.877Z,15.32
2023-11-20T11:13:35.939Z,11.95
2023-11-20T11:16:08.130Z,11.15
2023-11-20T11:18:36.855Z,14.93
2023-11-20T11:21:10.023Z,14.05
2023-11-20T11:23:37.372Z,14.15
2023-11-20T11:26:22.502Z,16.45
2023-11-20T11:28:57.298Z,12.25
2023-11-20T11:31:27.017Z,16.55
2023-11-20T11:34:16.216Z,11.73
2023-11-20T11:36:51.620Z,13.15
2023-11-20T11:39:27.651Z,13.27
2023-11-20T11:42:11.036Z,16.25
2023-11-20T11:44:46.290Z,13.60
2023-11-20T11:47:14.690Z,16.13
2023-11-20T11:49:52.055Z,10.98
2023-11-20T11:52:34.755Z,15.82
2023-11-20T11:55:14.403Z,11.15
2023-11-20T11:57:41.397Z,15.85
2023-11-20T12:00:12.602Z,17.15
2023-11-20T12:03:08.461Z,15.27
2023-11-20T12:05:55.263Z,9.10
2023-11-20T12:08:25.849Z,8.85
2023-11-20T12:10:53.834Z,7.95
2023-11-20T12:13:21.964Z,12.73
2023-11-20T12:15:52.565Z,12.13
2023-11-20T12:18:26.040Z,14.18
2023-11-20T12:20:53.836Z,6.97
2023-11-20T12:23:24.426Z,14.10
2023-11-20T12:25:54.534Z,12.60
2023-11-20T12:28:23.070Z,13.07
2023-11-20T12:30:50.852Z,14.02
2023-11-20T12:33:17.753Z,14.48
2023-11-20T12:35:45.072Z,11.27
2023-11-20T12:38:12.008Z,11.18
2023-11-20T12:40:38.810Z,12.52
2023-11-20T12:43:05.590Z,8.43
2023-11-20T12:45:32.319Z,15.40
2023-11-20T12:47:59.638Z,9.90
2023-11-20T12:50:29.191Z,16.17
2023-11-20T12:52:56.693Z,15.07
2023-11-20T12:55:23.984Z,14.45
2023-11-20T12:57:54.937Z,13.93
2023-11-20T13:00:23.243Z,12.63
2023-11-20T13:02:58.873Z,15.98
2023-11-20T13:05:28.651Z,17.38
2023-11-20T13:08:03.211Z,15.38
2023-11-20T13:10:32.513Z,11.07
2023-11-20T13:13:06.697Z,14.00
2023-11-20T13:15:38.599Z,17.73
2023-11-20T13:18:07.677Z,15.35
2023-11-20T13:20:41.013Z,16.08
2023-11-20T13:23:20.543Z,14.25
2023-11-20T13:25:52.301Z,14.77
2023-11-20T13:28:21.973Z,13.43
2023-11-20T13:31:00.462Z,15.90
2023-11-20T13:33:28.708Z,13.10
2023-11-20T13:35:56.618Z,15.15
2023-11-20T13:38:23.530Z,10.90
2023-11-20T13:40:50.559Z,12.82
2023-11-20T13:43:18.355Z,14.40
2023-11-20T13:45:47.122Z,10.38
2023-11-20T13:48:15.326Z,15.80
2023-11-20T13:50:44.785Z,14.55
2023-11-20T13:53:13.406Z,15.52
2023-11-20T13:55:47.170Z,12.20
2023-11-20T13:58:15.198Z,14.50
2023-11-20T14:00:42.919Z,10.32
2023-11-20T14:03:10.398Z,12.75
2023-11-20T14:05:37.691Z,22.48
2023-11-20T14:08:05.472Z,15.38
2023-11-20T14:10:33.160Z,11.40
2023-11-20T14:13:00.292Z,12.88
2023-11-20T14:15:27.566Z,10.20
2023-11-20T14:17:56.726Z,13.90
2023-11-20T14:20:27.363Z,19.42
2023-11-20T14:22:55.245Z,13.85
2023-11-20T14:25:24.739Z,12.18
2023-11-20T14:27:52.783Z,11.93
2023-11-20T14:30:20.689Z,15.48
2023-11-20T14:32:48.125Z,8.65
2023-11-20T14:35:22.602Z,11.93
2023-11-20T14:37:49.811Z,10.18
2023-11-20T14:40:19.083Z,12.07
2023-11-20T14:42:48.428Z,12.57
2023-11-20T14:45:22.832Z,12.75
2023-11-20T14:47:50.821Z,12.73
2023-11-20T14:50:18.803Z,11.98
2023-11-20T14:52:47.909Z,10.27
2023-11-20T14:55:14.940Z,13.48
2023-11-20T14:57:43.097Z,17.08
2023-11-20T15:00:15.405Z,11.90
2023-11-20T15:02:43.609Z,14.68
2023-11-20T15:05:13.365Z,12.40
2023-11-20T15:07:46.423Z,14.57
2023-11-20T15:10:15.102Z,15.27
2023-11-20T15:12:46.875Z,14.85
2023-11-20T15:15:15.557Z,16.40
2023-11-20T15:17:46.672Z,12.93
2023-11-20T15:20:23.876Z,7.85
2023-11-20T15:22:52.212Z,11.80
2023-11-20T15:25:19.510Z,9.52
2023-11-20T15:27:46.799Z,15.13
2023-11-20T15:30:17.207Z,6.18
2023-11-20T15:32:49.057Z,12.02
2023-11-20T15:35:16.356Z,8.23
2023-11-20T15:37:43.521Z,10.57
2023-11-20T15:40:10.961Z,17.33
2023-11-20T15:42:38.497Z,13.75
2023-11-20T15:45:06.737Z,14.60
2023-11-20T15:47:34.788Z,10.60
2023-11-20T15:50:02.264Z,14.38
2023-11-20T15:52:29.711Z,9.43
2023-11-20T15:54:59.079Z,14.02
2023-11-20T15:57:25.854Z,12.57
2023-11-20T15:59:52.602Z,16.65
2023-11-20T16:02:19.769Z,15.20
2023-11-20T16:04:46.979Z,18.60
2023-11-20T16:07:15.829Z,14.05
2023-11-20T16:09:42.893Z,13.52
2023-11-20T16:12:10.605Z,10.63
2023-11-20T16:14:37.816Z,17.08
2023-11-20T16:17:06.244Z,14.05
2023-11-20T16:19:33.066Z,14.82
2023-11-20T16:22:01.079Z,14.45
2023-11-20T16:24:28.864Z,16.85
2023-11-20T16:26:55.782Z,18.13
2023-11-20T16:29:22.587Z,22.83
2023-11-20T16:31:52.507Z,23.70
2023-11-20T16:34:19.763Z,17.60
2023-11-20T16:36:48.784Z,17.25
2023-11-20T16:39:15.990Z,15.43
2023-11-20T16:41:42.740Z,17.55
2023-11-20T16:44:10.095Z,17.85
2023-11-20T16:46:38.170Z,17.88
2023-11-20T16:49:05.394Z,18.52
2023-11-20T16:51:32.236Z,22.02
2023-11-20T16:53:59.039Z,17.67
2023-11-20T16:56:33.662Z,14.95
2023-11-20T16:59:03.467Z,15.43
2023-11-20T17:01:30.356Z,17.40
2023-11-20T17:03:59.935Z,18.50
2023-11-20T17:06:27.861Z,16.98
2023-11-20T17:08:56.385Z,16.52
2023-11-20T17:11:23.953Z,14.10
2023-11-20T17:13:53.088Z,13.70
2023-11-20T17:16:20.540Z,13.80
2023-11-20T17:18:47.402Z,13.77
2023-11-20T17:21:14.493Z,13.93
2023-11-20T17:23:41.409Z,15.68
2023-11-20T17:26:08.681Z,16.88
2023-11-20T17:28:35.638Z,14.20
2023-11-20T17:31:05.015Z,19.52
2023-11-20T17:33:32.718Z,14.52
2023-11-20T17:35:59.428Z,16.10
2023-11-20T17:38:27.070Z,12.63
2023-11-20T17:40:56.210Z,14.35
2023-11-20T17:43:23.514Z,19.90
2023-11-20T17:45:50.770Z,15.55
2023-11-20T17:48:19.543Z,17.95
2023-11-20T17:50:46.873Z,18.00
2023-11-20T17:53:14.292Z,16.48
2023-11-20T17:55:41.070Z,19.30
2023-11-20T17:58:07.975Z,19.00
2023-11-20T18:00:34.707Z,18.80
2023-11-20T18:03:03.532Z,16.23
2023-11-20T18:05:31.864Z,17.52
2023-11-20T18:07:59.897Z,16.48
2023-11-20T18:10:27.081Z,22.45
2023-11-20T18:12:55.853Z,19.90
2023-11-20T18:15:25.123Z,20.00
2023-11-20T18:17:52.234Z,21.15
2023-11-20T18:20:20.170Z,22.10
2023-11-20T18:22:48.035Z,17.98
2023-11-20T18:25:15.254Z,18.27
2023-11-20T18:27:42.568Z,17.65
2023-11-20T18:30:12.715Z,21.10
2023-11-20T18:32:41.292Z,23.23
2023-11-20T18:35:08.891Z,21.85
2023-11-20T18:37:36.091Z,22.88
2023-11-20T18:40:04.964Z,19.75
2023-11-20T18:42:31.767Z,16.60
2023-11-20T18:44:59.753Z,21.48
2023-11-20T18:47:27.848Z,16.35
2023-11-20T18:49:55.984Z,20.88
2023-11-20T18:52:23.340Z,18.52
2023-11-20T18:54:50.503Z,19.67
2023-11-20T18:57:17.898Z,25.40
2023-11-20T18:59:45.038Z,28.63
2023-11-20T19:02:12.266Z,23.27
2023-11-20T19:04:40.541Z,26.13
2023-11-20T19:07:07.851Z,22.02
2023-11-20T19:09:37.968Z,21.05
2023-11-20T19:12:05.750Z,22.67
2023-11-20T19:14:33.087Z,23.20
2023-11-20T19:16:59.887Z,23.98
2023-11-20T19:19:27.196Z,24.92
2023-11-20T19:21:54.475Z,24.60
2023-11-20T19:24:21.601Z,20.60
2023-11-20T19:26:48.338Z,22.13
2023-11-20T19:29:16.668Z,21.23
2023-11-20T19:31:43.706Z,24.05
2023-11-20T19:34:11.908Z,25.45
2023-11-20T19:36:39.988Z,25.17
2023-11-20T19:39:07.183Z,24.10
2023-11-20T19:41:34.362Z,29.88
2023-11-20T19:44:01.696Z,24.20
2023-11-20T19:46:29.155Z,23.90
2023-11-20T19:48:56.585Z,23.98
2023-11-20T19:51:23.830Z,25.83
2023-11-20T19:53:54.780Z,26.98
2023-11-20T19:56:23.316Z,29.48
2023-11-20T19:58:50.710Z,26.42
2023-11-20T20:01:18.109Z,22.38
2023-11-20T20:03:45.595Z,75.28
2023-11-20T20:06:12.882Z,70.38
2023-11-20T20:08:40.124Z,49.60
2023-11-20T20:11:07.360Z,39.20
2023-11-20T20:13:34.723Z,24.70
2023-11-20T20:16:03.413Z,28.17
2023-11-20T20:18:30.623Z,33.97
2023-11-20T20:20:57.446Z,31.20
2023-11-20T20:23:30.802Z,34.30
2023-11-20T20:25:58.758Z,30.80
2023-11-20T20:28:27.187Z,38.45
2023-11-20T20:30:54.529Z,36.92
2023-11-20T20:33:21.332Z,39.60
2023-11-20T20:35:48.518Z,35.28
2023-11-20T20:38:17.789Z,34.60
2023-11-20T20:40:48.489Z,30.30
2023-11-20T20:43:16.169Z,31.10
2023-11-20T20:45:44.756Z,37.22
2023-11-20T20:48:11.845Z,37.05
2023-11-20T20:50:39.209Z,31.35
2023-11-20T20:53:11.401Z,32.25
2023-11-20T20:55:38.642Z,36.15
2023-11-20T20:58:05.706Z,33.10
2023-11-20T21:00:34.500Z,31.00
2023-11-20T21:03:01.817Z,38.97
2023-11-20T21:05:30.566Z,31.50
2023-11-20T21:08:03.429Z,31.65
2023-11-20T21:10:30.628Z,30.20
2023-11-20T21:12:57.750Z,31.88
2023-11-20T21:15:25.040Z,30.77
2023-11-20T21:17:54.559Z,38.60
2023-11-20T21:20:21.952Z,33.53
2023-11-20T21:22:48.754Z,29.33
2023-11-20T21:25:16.102Z,27.35
2023-11-20T21:27:44.149Z,34.45
2023-11-20T21:30:11.807Z,30.33
2023-11-20T21:32:38.890Z,30.05
2023-11-20T21:35:06.620Z,32.83
2023-11-20T21:37:33.745Z,36.03
2023-11-20T21:40:00.989Z,31.30
2023-11-20T21:42:28.415Z,29.25
2023-11-20T21:44:55.805Z,29.40
2023-11-20T21:47:22.730Z,35.38
2023-11-20T21:49:49.865Z,37.90
2023-11-20T21:52:18.031Z,33.95
2023-11-20T21:54:45.293Z,30.42
2023-11-20T21:57:12.492Z,33.53
2023-11-20T21:59:41.549Z,35.55
2023-11-20T22:02:08.875Z,29.98
2023-11-20T22:04:36.179Z,29.45
2023-11-20T22:07:03.050Z,33.13
2023-11-20T22:09:29.785Z,36.10
2023-11-20T22:11:56.509Z,30.75
2023-11-20T22:14:23.311Z,29.15
2023-11-20T22:16:50.067Z,31.73
2023-11-20T22:19:17.258Z,28.65
2023-11-20T22:21:44.891Z,32.90
2023-11-20T22:24:11.578Z,29.00
2023-11-20T22:26:38.304Z,30.13
2023-11-20T22:29:05.485Z,31.13
2023-11-20T22:31:32.416Z,31.17
2023-11-20T22:34:01.719Z,33.70
2023-11-20T22:36:29.206Z,30.90
2023-11-20T22:38:59.270Z,29.88
2023-11-20T22:41:26.020Z,30.13
2023-11-20T22:43:53.352Z,32.92
2023-11-20T22:46:22.486Z,30.42
2023-11-20T22:48:49.996Z,27.42
2023-11-20T22:51:17.010Z,32.30
2023-11-20T22:53:45.115Z,26.17
2023-11-20T22:56:12.503Z,28.92
2023-11-20T22:58:39.362Z,30.63
2023-11-20T23:01:10.336Z,24.33
2023-11-20T23:03:37.733Z,25.25
2023-11-20T23:06:06.619Z,26.65
2023-11-20T23:08:34.818Z,31.17
2023-11-20T23:11:02.061Z,28.10
2023-11-20T23:13:29.304Z,29.90
2023-11-20T23:15:56.806Z,31.13
2023-11-20T23:18:24.330Z,28.25
2023-11-20T23:20:51.128Z,29.20
2023-11-20T23:23:18.270Z,26.65
2023-11-20T23:25:47.457Z,30.92
2023-11-20T23:28:14.343Z,28.83
2023-11-20T23:30:42.285Z,33.35
2023-11-20T23:33:09.109Z,31.38
2023-11-20T23:35:36.763Z,34.05
2023-11-20T23:38:03.640Z,28.08
2023-11-20T23:40:31.590Z,28.35
2023-11-20T23:42:58.821Z,32.17
2023-11-20T23:45:25.979Z,26.98
2023-11-20T23:47:55.826Z,27.58
2023-11-20T23:50:23.074Z,26.90
2023-11-20T23:52:50.587Z,29.40
2023-11-20T23:55:21.169Z,30.05
2023-11-20T23:57:48.619Z,26.05
